Time;durP1;ratioP1;P1;durP2;ratioP2;P2;SDS_P1;SDS_P2;PMS_P1;PMS_P2;Temp;Humidity;BMP_temperature;BMP_pressure;BME280_temperature;BME280_humidity;BME280_pressure;Samples;Min_cycle;Max_cycle;Signal;HPM_P1;HPM_P2
2023/12/11 00:02:11;;;;;;;15.35;3.28;;;;;;;;;;5156091;27;20062;-62
2023/12/11 00:04:38;;;;;;;12.52;3.50;;;;;;;;;;5156543;27;20406;-62
2023/12/11 00:07:05;;;;;;;15.80;3.40;;;;;;;;;;5156193;27;20410;-62
2023/12/11 00:09:32;;;;;;;12.35;3.53;;;;;;;;;;5155143;27;20059;-62
2023/12/11 00:11:59;;;;;;;14.68;3.55;;;;;;;;;;5156488;27;20517;-62
2023/12/11 00:14:27;;;;;;;16.55;3.67;;;;;;;;;;5156224;27;20367;-61
2023/12/11 00:16:54;;;;;;;13.55;3.08;;;;;;;;;;5155657;27;20050;-61
2023/12/11 00:19:21;;;;;;;15.43;3.30;;;;;;;;;;5155794;27;20051;-62
2023/12/11 00:21:48;;;;;;;13.02;3.47;;;;;;;;;;5155121;27;20055;-62
2023/12/11 00:24:15;;;;;;;14.95;3.78;;;;;;;;;;5152705;27;20058;-61
2023/12/11 00:26:42;;;;;;;16.27;3.60;;;;;;;;;;5155300;27;20069;-62
2023/12/11 00:29:09;;;;;;;17.75;3.65;;;;;;;;;;5155888;27;20058;-62
2023/12/11 00:31:39;;;;;;;15.90;3.70;;;;;;;;;;5155855;27;20054;-62
2023/12/11 00:34:05;;;;;;;16.65;3.90;;;;;;;;;;5155009;27;20058;-61
2023/12/11 00:36:32;;;;;;;11.82;3.80;;;;;;;;;;5154235;27;20054;-60
2023/12/11 00:39:00;;;;;;;15.13;4.00;;;;;;;;;;5152596;27;20062;-61
2023/12/11 00:41:27;;;;;;;16.67;4.57;;;;;;;;;;5154074;27;20054;-62
2023/12/11 00:43:54;;;;;;;12.35;4.00;;;;;;;;;;5154081;27;20046;-62
2023/12/11 00:46:22;;;;;;;19.77;4.43;;;;;;;;;;5154611;27;20047;-62
2023/12/11 00:48:50;;;;;;;17.38;4.13;;;;;;;;;;5155283;27;20057;-62
2023/12/11 00:51:17;;;;;;;18.52;4.07;;;;;;;;;;5155547;27;20055;-62
2023/12/11 00:53:44;;;;;;;17.35;4.50;;;;;;;;;;5152658;27;20410;-62
2023/12/11 00:56:12;;;;;;;16.00;3.85;;;;;;;;;;5155719;27;20046;-63
2023/12/11 00:58:39;;;;;;;20.20;5.03;;;;;;;;;;5155529;27;20046;-62
2023/12/11 01:01:06;;;;;;;20.65;3.67;;;;;;;;;;5155377;27;20181;-62
2023/12/11 01:03:33;;;;;;;14.25;4.05;;;;;;;;;;5154738;27;20051;-62
2023/12/11 01:06:01;;;;;;;17.25;4.35;;;;;;;;;;5154313;27;20043;-61
2023/12/11 01:08:30;;;;;;;20.80;4.90;;;;;;;;;;5142180;27;20055;-62
2023/12/11 01:10:59;;;;;;;18.65;4.75;;;;;;;;;;5134218;27;20484;-62
2023/12/11 01:13:26;;;;;;;19.58;4.65;;;;;;;;;;5134324;27;20054;-62
2023/12/11 01:15:53;;;;;;;17.67;4.40;;;;;;;;;;5134392;27;20051;-62
2023/12/11 01:18:19;;;;;;;19.65;4.88;;;;;;;;;;5134177;27;20448;-62
2023/12/11 01:20:46;;;;;;;20.25;5.00;;;;;;;;;;5134117;27;20134;-62
2023/12/11 01:23:14;;;;;;;15.93;4.30;;;;;;;;;;5144762;27;20043;-62
2023/12/11 01:25:41;;;;;;;22.48;4.63;;;;;;;;;;5154646;27;20396;-62
2023/12/11 01:28:08;;;;;;;22.83;5.30;;;;;;;;;;5154397;27;20073;-62
2023/12/11 01:30:35;;;;;;;18.30;4.95;;;;;;;;;;5154828;27;20061;-62
2023/12/11 01:33:03;;;;;;;18.98;5.20;;;;;;;;;;5154606;27;20057;-62
2023/12/11 01:35:30;;;;;;;17.92;4.18;;;;;;;;;;5154562;27;20395;-62
2023/12/11 01:37:56;;;;;;;23.25;5.28;;;;;;;;;;5149956;27;20395;-62
2023/12/11 01:40:25;;;;;;;18.60;4.72;;;;;;;;;;5154150;27;20106;-62
2023/12/11 01:42:52;;;;;;;23.60;5.40;;;;;;;;;;5154454;27;20051;-62
2023/12/11 01:45:19;;;;;;;25.15;5.70;;;;;;;;;;5153963;27;20062;-63
2023/12/11 01:47:46;;;;;;;19.02;4.88;;;;;;;;;;5153946;27;20051;-64
2023/12/11 01:50:13;;;;;;;23.63;5.32;;;;;;;;;;5153930;27;20074;-62
2023/12/11 01:52:40;;;;;;;26.65;6.50;;;;;;;;;;5147346;27;20050;-62
2023/12/11 01:55:07;;;;;;;21.73;4.80;;;;;;;;;;5133265;27;20513;-62
2023/12/11 01:57:36;;;;;;;22.90;4.70;;;;;;;;;;5133584;27;20055;-62
2023/12/11 02:00:04;;;;;;;21.42;5.25;;;;;;;;;;5133678;27;20062;-61
2023/12/11 02:02:31;;;;;;;17.10;4.57;;;;;;;;;;5137466;27;20055;-62
2023/12/11 02:04:58;;;;;;;17.17;4.43;;;;;;;;;;5153947;27;20057;-61
2023/12/11 02:07:25;;;;;;;21.75;4.88;;;;;;;;;;5150326;27;20042;-61
2023/12/11 02:09:52;;;;;;;23.10;5.57;;;;;;;;;;5154143;27;20062;-62
2023/12/11 02:12:18;;;;;;;17.67;3.92;;;;;;;;;;5154190;27;20051;-62
2023/12/11 02:14:47;;;;;;;18.08;4.85;;;;;;;;;;5153696;27;20058;-62
2023/12/11 02:17:14;;;;;;;20.00;4.88;;;;;;;;;;5154419;27;20403;-62
2023/12/11 02:19:40;;;;;;;24.42;5.28;;;;;;;;;;5153723;27;20368;-62
2023/12/11 02:22:07;;;;;;;21.90;5.38;;;;;;;;;;5152195;27;20057;-62
2023/12/11 02:24:39;;;;;;;23.17;5.07;;;;;;;;;;5152950;27;20065;-62
2023/12/11 02:27:07;;;;;;;19.05;4.45;;;;;;;;;;5154109;27;20387;-62
2023/12/11 02:29:34;;;;;;;21.17;5.10;;;;;;;;;;5153806;27;20050;-63
2023/12/11 02:32:01;;;;;;;21.77;5.13;;;;;;;;;;5154095;27;20062;-62
2023/12/11 02:34:28;;;;;;;19.83;5.13;;;;;;;;;;5153330;27;20491;-61
2023/12/11 02:36:55;;;;;;;20.02;4.65;;;;;;;;;;5153188;27;20495;-62
2023/12/11 02:39:22;;;;;;;17.73;5.00;;;;;;;;;;5134540;27;20059;-62
2023/12/11 02:41:49;;;;;;;23.33;5.55;;;;;;;;;;5133485;28;20051;-61
2023/12/11 02:44:17;;;;;;;19.08;5.65;;;;;;;;;;5133488;28;20051;-62
2023/12/11 02:46:44;;;;;;;18.13;4.80;;;;;;;;;;5133185;28;20050;-62
2023/12/11 02:49:11;;;;;;;19.30;4.80;;;;;;;;;;5133375;28;20051;-62
2023/12/11 02:51:38;;;;;;;17.63;4.70;;;;;;;;;;5132919;28;20062;-62
2023/12/11 02:54:04;;;;;;;24.80;4.88;;;;;;;;;;5151248;27;20054;-62
2023/12/11 02:56:31;;;;;;;20.85;5.07;;;;;;;;;;5153663;27;20057;-62
2023/12/11 02:58:58;;;;;;;16.77;4.35;;;;;;;;;;5153762;27;20479;-61
2023/12/11 03:01:26;;;;;;;14.80;4.68;;;;;;;;;;5143492;27;20054;-62
2023/12/11 03:03:53;;;;;;;18.85;4.63;;;;;;;;;;5133187;28;20073;-62
2023/12/11 03:06:20;;;;;;;17.52;4.70;;;;;;;;;;5133007;28;20047;-62
2023/12/11 03:08:47;;;;;;;19.98;4.93;;;;;;;;;;5134117;27;20416;-62
2023/12/11 03:11:14;;;;;;;20.70;5.10;;;;;;;;;;5147816;27;20515;-62
2023/12/11 03:13:41;;;;;;;20.75;4.63;;;;;;;;;;5153414;27;20055;-62
2023/12/11 03:16:12;;;;;;;25.90;4.90;;;;;;;;;;5153460;27;20046;-62
2023/12/11 03:18:41;;;;;;;21.40;4.93;;;;;;;;;;5153564;27;20055;-62
2023/12/11 03:21:08;;;;;;;16.83;4.63;;;;;;;;;;5153512;27;20058;-62
2023/12/11 03:23:34;;;;;;;16.85;4.30;;;;;;;;;;5151849;27;20054;-62
2023/12/11 03:26:01;;;;;;;20.50;4.53;;;;;;;;;;5153087;27;20058;-62
2023/12/11 03:28:28;;;;;;;17.10;4.55;;;;;;;;;;5153620;27;20047;-62
2023/12/11 03:30:55;;;;;;;16.17;4.15;;;;;;;;;;5153423;27;20047;-62
2023/12/11 03:33:22;;;;;;;19.90;4.82;;;;;;;;;;5153592;27;20407;-62
2023/12/11 03:35:50;;;;;;;19.75;5.38;;;;;;;;;;5156487;27;20051;-62
2023/12/11 03:38:17;;;;;;;18.67;4.65;;;;;;;;;;5154919;27;20051;-62
2023/12/11 03:40:44;;;;;;;18.27;4.20;;;;;;;;;;5157223;27;20057;-61
2023/12/11 03:43:11;;;;;;;17.52;4.78;;;;;;;;;;5156885;27;20074;-61
2023/12/11 03:45:38;;;;;;;21.00;5.50;;;;;;;;;;5156896;27;20054;-62
2023/12/11 03:48:05;;;;;;;19.92;4.38;;;;;;;;;;5156844;27;20482;-62
2023/12/11 03:50:32;;;;;;;16.13;4.00;;;;;;;;;;5156732;27;20050;-61
2023/12/11 03:53:00;;;;;;;22.42;4.55;;;;;;;;;;5154588;27;20050;-62
2023/12/11 03:55:27;;;;;;;18.83;4.68;;;;;;;;;;5156838;27;20132;-61
2023/12/11 03:57:54;;;;;;;22.10;5.22;;;;;;;;;;5156704;27;20053;-61
2023/12/11 04:00:22;;;;;;;22.77;4.55;;;;;;;;;;5156340;27;20047;-62
2023/12/11 04:02:49;;;;;;;17.88;3.78;;;;;;;;;;5147157;27;20066;-62
2023/12/11 04:05:16;;;;;;;12.45;3.78;;;;;;;;;;5135782;27;20054;-62
2023/12/11 04:07:43;;;;;;;15.90;3.45;;;;;;;;;;5147003;27;20049;-62
2023/12/11 04:10:11;;;;;;;16.65;3.67;;;;;;;;;;5156093;27;20062;-61
2023/12/11 04:12:38;;;;;;;15.55;3.38;;;;;;;;;;5156586;27;20415;-62
2023/12/11 04:15:05;;;;;;;14.20;3.83;;;;;;;;;;5156324;27;20061;-61
2023/12/11 04:17:32;;;;;;;17.02;4.30;;;;;;;;;;5156279;27;20055;-61
2023/12/11 04:19:59;;;;;;;21.23;5.50;;;;;;;;;;5156138;27;20055;-61
2023/12/11 04:22:26;;;;;;;18.52;4.30;;;;;;;;;;5154137;27;20055;-61
2023/12/11 04:24:53;;;;;;;25.80;5.18;;;;;;;;;;5156179;27;20058;-62
2023/12/11 04:27:21;;;;;;;20.23;4.28;;;;;;;;;;5156275;27;20046;-61
2023/12/11 04:29:48;;;;;;;18.77;4.32;;;;;;;;;;5155771;27;20055;-62
2023/12/11 04:32:15;;;;;;;21.15;5.05;;;;;;;;;;5156253;27;20059;-62
2023/12/11 04:34:42;;;;;;;23.05;4.57;;;;;;;;;;5155730;27;20050;-62
2023/12/11 04:37:09;;;;;;;19.48;4.47;;;;;;;;;;5154578;27;20043;-62
2023/12/11 04:39:36;;;;;;;16.13;4.10;;;;;;;;;;5155667;27;20506;-61
2023/12/11 04:42:03;;;;;;;17.15;4.68;;;;;;;;;;5156150;27;20050;-61
2023/12/11 04:44:31;;;;;;;17.38;3.83;;;;;;;;;;5155970;27;20046;-62
2023/12/11 04:46:58;;;;;;;17.40;4.45;;;;;;;;;;5155186;27;20050;-61
2023/12/11 04:49:25;;;;;;;12.95;3.63;;;;;;;;;;5155921;27;20066;-62
2023/12/11 04:51:52;;;;;;;16.88;4.43;;;;;;;;;;5153128;27;20053;-62
2023/12/11 04:54:19;;;;;;;19.00;4.45;;;;;;;;;;5155003;27;20051;-62
2023/12/11 04:56:45;;;;;;;15.77;3.90;;;;;;;;;;5146548;27;20059;-61
2023/12/11 04:59:12;;;;;;;12.95;3.83;;;;;;;;;;5134916;27;20065;-62
2023/12/11 05:01:41;;;;;;;10.20;2.75;;;;;;;;;;5134843;27;20518;-62
2023/12/11 05:04:07;;;;;;;10.48;2.70;;;;;;;;;;5134734;27;20062;-62
2023/12/11 05:06:35;;;;;;;11.73;3.17;;;;;;;;;;5136098;27;20043;-61
2023/12/11 05:09:01;;;;;;;15.25;3.55;;;;;;;;;;5155336;27;20054;-61
2023/12/11 05:11:28;;;;;;;18.13;3.83;;;;;;;;;;5155321;27;20499;-61
2023/12/11 05:13:55;;;;;;;15.77;3.95;;;;;;;;;;5155233;27;20502;-61
2023/12/11 05:16:22;;;;;;;22.65;4.32;;;;;;;;;;5154863;27;20073;-62
2023/12/11 05:18:51;;;;;;;15.45;3.67;;;;;;;;;;5155226;27;20047;-61
2023/12/11 05:21:17;;;;;;;20.73;4.47;;;;;;;;;;5152525;27;20455;-61
2023/12/11 05:23:44;;;;;;;20.90;4.57;;;;;;;;;;5154886;27;20124;-62
2023/12/11 05:26:11;;;;;;;17.42;3.50;;;;;;;;;;5153711;27;20395;-61
2023/12/11 05:28:38;;;;;;;24.65;4.07;;;;;;;;;;5143372;27;20058;-62
2023/12/11 05:31:05;;;;;;;14.48;3.58;;;;;;;;;;5133919;27;20055;-62
2023/12/11 05:33:32;;;;;;;19.10;3.63;;;;;;;;;;5133939;27;20046;-62
2023/12/11 05:36:00;;;;;;;15.90;2.80;;;;;;;;;;5134027;27;20054;-61
2023/12/11 05:38:27;;;;;;;15.85;3.30;;;;;;;;;;5135295;27;20050;-63
2023/12/11 05:40:54;;;;;;;17.27;3.60;;;;;;;;;;5133802;27;20050;-63
2023/12/11 05:43:21;;;;;;;14.75;3.53;;;;;;;;;;5133160;27;20055;-64
2023/12/11 05:45:48;;;;;;;14.02;3.75;;;;;;;;;;5134565;27;20066;-63
2023/12/11 05:48:15;;;;;;;20.58;4.47;;;;;;;;;;5154671;27;20051;-64
2023/12/11 05:50:42;;;;;;;17.05;3.92;;;;;;;;;;5154724;27;20046;-64
2023/12/11 05:53:10;;;;;;;16.73;4.10;;;;;;;;;;5152762;27;20077;-64
2023/12/11 05:55:37;;;;;;;29.15;4.80;;;;;;;;;;5154295;27;20050;-65
2023/12/11 05:58:04;;;;;;;17.38;4.18;;;;;;;;;;5143620;27;20047;-63
2023/12/11 06:00:31;;;;;;;16.80;4.57;;;;;;;;;;5146282;27;20057;-64
2023/12/11 06:02:58;;;;;;;24.83;5.03;;;;;;;;;;5145799;27;20070;-65
2023/12/11 06:05:25;;;;;;;13.82;3.00;;;;;;;;;;5149383;27;20058;-64
2023/12/11 06:07:52;;;;;;;13.32;3.60;;;;;;;;;;5154353;27;20051;-64
2023/12/11 06:10:20;;;;;;;12.10;3.50;;;;;;;;;;5144319;27;20047;-66
2023/12/11 06:12:47;;;;;;;19.70;4.82;;;;;;;;;;5140182;27;20054;-65
2023/12/11 06:15:14;;;;;;;18.30;5.35;;;;;;;;;;5133276;27;20070;-65
2023/12/11 06:17:41;;;;;;;26.85;6.47;;;;;;;;;;5151444;27;20403;-64
2023/12/11 06:20:09;;;;;;;27.80;5.93;;;;;;;;;;5151362;27;20062;-63
2023/12/11 06:22:36;;;;;;;25.65;5.28;;;;;;;;;;5147295;27;20069;-64
2023/12/11 06:25:03;;;;;;;25.25;5.85;;;;;;;;;;5142032;27;20046;-64
2023/12/11 06:27:31;;;;;;;29.45;7.35;;;;;;;;;;5153777;27;20403;-64
2023/12/11 06:29:59;;;;;;;30.65;6.97;;;;;;;;;;5154048;27;20050;-63
2023/12/11 06:32:26;;;;;;;24.50;6.70;;;;;;;;;;5145827;27;20450;-64
2023/12/11 06:34:53;;;;;;;29.80;6.85;;;;;;;;;;5138284;27;20053;-64
2023/12/11 06:37:20;;;;;;;22.20;5.60;;;;;;;;;;5133559;27;20488;-64
2023/12/11 06:39:48;;;;;;;21.67;5.57;;;;;;;;;;5132525;27;20047;-64
2023/12/11 06:42:15;;;;;;;25.95;6.00;;;;;;;;;;5139819;27;20046;-64
2023/12/11 06:44:43;;;;;;;23.67;5.63;;;;;;;;;;5134638;27;20053;-64
2023/12/11 06:47:11;;;;;;;19.83;5.43;;;;;;;;;;5132981;28;20051;-64
2023/12/11 06:49:38;;;;;;;15.63;4.18;;;;;;;;;;5140862;27;20448;-67
2023/12/11 06:52:05;;;;;;;19.58;4.80;;;;;;;;;;5133363;28;20047;-67
2023/12/11 06:54:32;;;;;;;22.35;4.63;;;;;;;;;;5139265;27;20046;-66
2023/12/11 06:56:59;;;;;;;23.42;4.05;;;;;;;;;;5143564;27;20052;-66
2023/12/11 06:59:26;;;;;;;22.15;4.65;;;;;;;;;;5132219;27;20051;-66
2023/12/11 07:01:54;;;;;;;16.08;4.00;;;;;;;;;;5131512;27;20047;-67
2023/12/11 07:04:21;;;;;;;18.05;4.65;;;;;;;;;;5133037;27;20484;-66
2023/12/11 07:06:48;;;;;;;23.67;4.93;;;;;;;;;;5150253;27;20057;-66
2023/12/11 07:09:15;;;;;;;18.00;4.18;;;;;;;;;;5150523;27;20502;-66
2023/12/11 07:11:42;;;;;;;20.45;4.63;;;;;;;;;;5155492;27;20490;-66
2023/12/11 07:14:09;;;;;;;18.17;4.72;;;;;;;;;;5144090;27;20051;-66
2023/12/11 07:16:36;;;;;;;18.42;4.53;;;;;;;;;;5142817;27;20070;-65
2023/12/11 07:19:04;;;;;;;20.77;4.55;;;;;;;;;;5155416;27;20054;-66
2023/12/11 07:21:31;;;;;;;20.80;4.32;;;;;;;;;;5140997;27;20058;-66
2023/12/11 07:23:58;;;;;;;17.63;5.18;;;;;;;;;;5154602;27;20054;-65
2023/12/11 07:26:25;;;;;;;19.85;4.50;;;;;;;;;;5151319;27;20074;-66
2023/12/11 07:28:54;;;;;;;16.05;4.18;;;;;;;;;;5148027;27;20046;-63
2023/12/11 07:31:21;;;;;;;12.75;4.20;;;;;;;;;;5147794;27;20059;-63
2023/12/11 07:33:48;;;;;;;13.48;4.60;;;;;;;;;;5141351;27;20499;-69
2023/12/11 07:36:17;;;;;;;18.77;4.90;;;;;;;;;;5143064;27;20406;-70
2023/12/11 07:38:43;;;;;;;15.05;4.35;;;;;;;;;;5138965;27;20062;-70
2023/12/11 07:41:11;;;;;;;18.60;3.97;;;;;;;;;;5145423;27;20506;-70
2023/12/11 07:43:38;;;;;;;16.98;5.20;;;;;;;;;;5142721;27;20490;-71
2023/12/11 07:46:05;;;;;;;21.17;4.90;;;;;;;;;;5144642;27;20078;-70
2023/12/11 07:48:32;;;;;;;18.70;4.28;;;;;;;;;;5147363;27;20047;-71
2023/12/11 07:50:59;;;;;;;17.05;4.43;;;;;;;;;;5145653;27;20438;-68
2023/12/11 07:53:27;;;;;;;15.80;4.30;;;;;;;;;;5146637;27;20046;-67
2023/12/11 07:55:54;;;;;;;17.33;4.97;;;;;;;;;;5148972;27;20054;-69
2023/12/11 07:58:20;;;;;;;17.67;4.30;;;;;;;;;;5149097;27;20062;-70
2023/12/11 08:00:47;;;;;;;16.60;4.78;;;;;;;;;;5148434;27;20051;-71
2023/12/11 08:03:14;;;;;;;18.48;4.57;;;;;;;;;;5150327;27;20055;-70
2023/12/11 08:05:41;;;;;;;15.50;4.40;;;;;;;;;;5149014;27;20051;-71
2023/12/11 08:08:08;;;;;;;15.32;3.95;;;;;;;;;;5140042;27;20051;-71
2023/12/11 08:10:36;;;;;;;15.20;4.53;;;;;;;;;;5150115;27;20054;-72
2023/12/11 08:13:03;;;;;;;17.98;4.53;;;;;;;;;;5145571;27;20054;-71
2023/12/11 08:15:30;;;;;;;19.85;4.68;;;;;;;;;;5142792;27;20054;-72
2023/12/11 08:17:57;;;;;;;18.17;4.68;;;;;;;;;;5149003;27;20073;-70
2023/12/11 08:20:24;;;;;;;17.13;4.25;;;;;;;;;;5148766;27;20051;-70
2023/12/11 08:22:50;;;;;;;18.83;4.40;;;;;;;;;;5148472;27;20057;-70
2023/12/11 08:25:17;;;;;;;20.83;4.60;;;;;;;;;;5145481;27;20415;-71
2023/12/11 08:27:46;;;;;;;20.65;4.78;;;;;;;;;;5149587;27;20069;-71
2023/12/11 08:30:13;;;;;;;25.02;5.38;;;;;;;;;;5139752;27;20038;-71
2023/12/11 08:32:40;;;;;;;21.38;4.50;;;;;;;;;;5152843;27;20530;-72
2023/12/11 08:35:07;;;;;;;24.05;5.60;;;;;;;;;;5143152;27;20054;-72
2023/12/11 08:37:34;;;;;;;24.30;5.53;;;;;;;;;;5135367;27;20055;-72
2023/12/11 08:40:03;;;;;;;24.08;4.45;;;;;;;;;;5147152;27;20487;-70
2023/12/11 08:42:31;;;;;;;26.47;6.37;;;;;;;;;;5150630;27;20478;-72
2023/12/11 08:44:59;;;;;;;23.25;5.00;;;;;;;;;;5150345;27;20457;-71
2023/12/11 08:47:29;;;;;;;21.55;4.75;;;;;;;;;;5151959;27;20051;-72
2023/12/11 08:49:55;;;;;;;22.40;4.95;;;;;;;;;;5142604;27;20463;-72
2023/12/11 08:52:22;;;;;;;19.33;4.97;;;;;;;;;;5154707;27;20419;-72
2023/12/11 08:54:50;;;;;;;20.17;4.82;;;;;;;;;;5146389;27;20558;-72
2023/12/11 08:57:17;;;;;;;18.15;4.57;;;;;;;;;;5134518;27;20055;-71
2023/12/11 08:59:44;;;;;;;13.95;3.95;;;;;;;;;;5138604;27;20051;-72
2023/12/11 09:02:12;;;;;;;19.95;5.07;;;;;;;;;;5146724;27;20047;-72
2023/12/11 09:04:39;;;;;;;15.50;3.90;;;;;;;;;;5135346;27;20066;-70
2023/12/11 09:07:07;;;;;;;16.67;3.53;;;;;;;;;;5147789;27;20403;-71
2023/12/11 09:09:34;;;;;;;15.70;3.63;;;;;;;;;;5138610;27;20047;-71
2023/12/11 09:12:01;;;;;;;12.55;3.28;;;;;;;;;;5138902;27;20392;-69
2023/12/11 09:14:28;;;;;;;13.50;3.22;;;;;;;;;;5139995;27;20495;-71
2023/12/11 09:16:55;;;;;;;10.45;3.22;;;;;;;;;;5141404;27;20054;-71
2023/12/11 09:19:24;;;;;;;10.18;3.13;;;;;;;;;;5138102;27;20043;-71
2023/12/11 09:21:53;;;;;;;16.63;3.47;;;;;;;;;;5139015;27;20061;-73
2023/12/11 09:24:20;;;;;;;13.05;3.33;;;;;;;;;;5134422;27;20051;-71
2023/12/11 09:26:47;;;;;;;15.10;3.80;;;;;;;;;;5139707;27;20055;-71
2023/12/11 09:29:15;;;;;;;8.82;2.80;;;;;;;;;;5137057;27;20490;-70
2023/12/11 09:31:43;;;;;;;11.82;3.30;;;;;;;;;;5139515;27;20054;-70
2023/12/11 09:34:10;;;;;;;17.58;3.47;;;;;;;;;;5138107;27;20047;-71
2023/12/11 09:36:38;;;;;;;12.25;3.38;;;;;;;;;;5144406;27;20051;-70
2023/12/11 09:39:07;;;;;;;14.15;3.20;;;;;;;;;;5133869;27;20051;-72
2023/12/11 09:41:34;;;;;;;13.52;3.42;;;;;;;;;;5144460;27;20062;-70
2023/12/11 09:44:02;;;;;;;11.57;4.03;;;;;;;;;;5143841;27;20043;-70
2023/12/11 09:46:30;;;;;;;12.80;2.85;;;;;;;;;;5137714;27;20505;-70
2023/12/11 09:48:57;;;;;;;10.57;3.45;;;;;;;;;;5149283;27;20062;-69
2023/12/11 09:51:24;;;;;;;16.08;5.68;;;;;;;;;;5144248;27;20046;-70
2023/12/11 09:53:52;;;;;;;13.90;3.42;;;;;;;;;;5138880;27;20112;-70
2023/12/11 09:56:19;;;;;;;14.50;4.15;;;;;;;;;;5152141;27;20050;-70
2023/12/11 09:58:47;;;;;;;12.30;3.65;;;;;;;;;;5149565;27;20051;-70
2023/12/11 10:01:14;;;;;;;14.68;3.80;;;;;;;;;;5144876;27;20042;-70
2023/12/11 10:03:43;;;;;;;14.13;3.60;;;;;;;;;;5138170;27;20055;-70
2023/12/11 10:06:10;;;;;;;12.70;3.58;;;;;;;;;;5130622;27;20492;-70
2023/12/11 10:08:40;;;;;;;12.35;4.03;;;;;;;;;;5116352;27;20051;-70
2023/12/11 10:11:12;;;;;;;15.63;3.58;;;;;;;;;;5112604;28;20055;-70
2023/12/11 10:13:39;;;;;;;13.90;3.42;;;;;;;;;;5124663;27;20427;-70
2023/12/11 10:16:07;;;;;;;14.90;3.58;;;;;;;;;;5128756;27;20054;-71
2023/12/11 10:18:33;;;;;;;10.68;3.33;;;;;;;;;;5117357;27;20047;-70
2023/12/11 10:21:00;;;;;;;14.80;3.97;;;;;;;;;;5130290;27;20043;-69
2023/12/11 10:23:27;;;;;;;12.73;3.22;;;;;;;;;;5127694;27;20054;-70
2023/12/11 10:25:56;;;;;;;9.32;2.67;;;;;;;;;;5133070;27;20050;-70
2023/12/11 10:28:25;;;;;;;10.05;2.63;;;;;;;;;;5130880;27;20043;-70
2023/12/11 10:30:54;;;;;;;10.88;2.92;;;;;;;;;;5133022;27;20396;-70
2023/12/11 10:33:21;;;;;;;12.52;3.38;;;;;;;;;;5119269;27;20057;-71
2023/12/11 10:35:48;;;;;;;11.07;3.15;;;;;;;;;;5124697;27;20510;-72
2023/12/11 10:38:25;;;;;;;10.63;3.50;;;;;;;;;;5131591;28;20476;-71
2023/12/11 10:40:54;;;;;;;9.30;3.65;;;;;;;;;;5120121;27;20048;-72
2023/12/11 10:43:21;;;;;;;10.82;3.20;;;;;;;;;;5125158;27;20061;-72
2023/12/11 10:45:50;;;;;;;12.13;3.78;;;;;;;;;;5123812;27;20487;-70
2023/12/11 10:48:17;;;;;;;10.80;3.55;;;;;;;;;;5135294;27;20070;-73
2023/12/11 10:50:44;;;;;;;17.05;3.70;;;;;;;;;;5128429;27;20490;-70
2023/12/11 10:53:11;;;;;;;11.13;3.80;;;;;;;;;;5129954;27;20048;-71
2023/12/11 10:55:39;;;;;;;12.82;3.88;;;;;;;;;;5137552;27;20467;-71
2023/12/11 10:58:07;;;;;;;13.25;3.40;;;;;;;;;;5117932;27;20055;-69
2023/12/11 11:00:34;;;;;;;12.40;3.75;;;;;;;;;;5128342;27;20039;-70
2023/12/11 11:03:05;;;;;;;11.07;3.53;;;;;;;;;;5127487;27;20043;-72
2023/12/11 11:05:32;;;;;;;9.98;3.33;;;;;;;;;;5128471;27;20055;-68
2023/12/11 11:08:03;;;;;;;13.27;3.55;;;;;;;;;;5119370;27;20397;-70
2023/12/11 11:10:34;;;;;;;10.68;3.35;;;;;;;;;;5128977;27;20074;-70
2023/12/11 11:13:05;;;;;;;10.73;3.22;;;;;;;;;;5134497;27;20486;-70
2023/12/11 11:15:31;;;;;;;10.20;3.30;;;;;;;;;;5117801;27;20050;-70
2023/12/11 11:18:03;;;;;;;8.68;3.00;;;;;;;;;;5115875;28;20412;-70
2023/12/11 11:20:31;;;;;;;10.15;3.25;;;;;;;;;;5126008;27;20043;-69
2023/12/11 11:23:18;;;;;;;10.75;3.58;;;;;;;;;;5116576;27;20554;-71
2023/12/11 11:25:50;;;;;;;9.98;3.28;;;;;;;;;;5118099;27;20069;-70
2023/12/11 11:28:32;;;;;;;13.95;3.88;;;;;;;;;;5134080;27;20058;-70
2023/12/11 11:30:59;;;;;;;13.48;4.20;;;;;;;;;;5133016;27;20399;-69
2023/12/11 11:33:42;;;;;;;14.63;4.25;;;;;;;;;;5134665;27;20055;-69
2023/12/11 11:36:09;;;;;;;11.60;4.50;;;;;;;;;;5128390;27;20055;-70
2023/12/11 11:38:52;;;;;;;10.30;3.83;;;;;;;;;;5130795;27;20043;-70
2023/12/11 11:41:25;;;;;;;10.43;3.65;;;;;;;;;;5127983;27;20055;-71
2023/12/11 11:43:56;;;;;;;10.05;3.92;;;;;;;;;;5116697;27;20077;-70
2023/12/11 11:46:23;;;;;;;9.65;3.72;;;;;;;;;;5118507;27;20052;-70
2023/12/11 11:48:52;;;;;;;8.23;3.50;;;;;;;;;;5117918;27;20054;-70
2023/12/11 11:51:19;;;;;;;9.38;3.80;;;;;;;;;;5135286;27;20062;-70
2023/12/11 11:53:47;;;;;;;6.38;2.67;;;;;;;;;;5118950;27;20054;-70
2023/12/11 11:56:13;;;;;;;7.72;2.95;;;;;;;;;;5120870;27;20478;-68
2023/12/11 11:58:40;;;;;;;4.18;2.50;;;;;;;;;;5135950;27;20050;-71
2023/12/11 12:01:07;;;;;;;7.00;2.60;;;;;;;;;;5130179;27;20039;-72
2023/12/11 12:03:39;;;;;;;7.10;2.30;;;;;;;;;;5135066;27;20058;-71
2023/12/11 12:06:08;;;;;;;6.10;2.00;;;;;;;;;;5135352;27;20054;-73
2023/12/11 12:08:36;;;;;;;5.68;2.08;;;;;;;;;;5130453;27;20388;-72
2023/12/11 12:11:03;;;;;;;8.10;2.25;;;;;;;;;;5132969;27;20043;-72
2023/12/11 12:13:33;;;;;;;5.63;2.22;;;;;;;;;;5134473;27;20058;-72
2023/12/11 12:15:59;;;;;;;;;;;;;;;;;;5129497;27;20054;-71
2023/12/11 12:18:26;;;;;;;3.40;1.73;;;;;;;;;;5128890;27;20390;-72
2023/12/11 12:21:03;;;;;;;6.00;2.00;;;;;;;;;;5131752;27;20039;-73
2023/12/11 12:23:31;;;;;;;6.10;1.63;;;;;;;;;;5131967;27;20065;-72
2023/12/11 12:25:59;;;;;;;6.75;2.30;;;;;;;;;;5129606;27;20480;-70
2023/12/11 12:28:26;;;;;;;4.93;2.08;;;;;;;;;;5133457;27;20058;-74
2023/12/11 12:30:53;;;;;;;7.18;2.33;;;;;;;;;;5132215;27;20046;-73
2023/12/11 12:33:20;;;;;;;7.10;2.25;;;;;;;;;;5134088;27;20050;-74
2023/12/11 12:35:48;;;;;;;6.10;2.45;;;;;;;;;;5130577;27;20043;-73
2023/12/11 12:38:16;;;;;;;6.65;2.50;;;;;;;;;;5129258;27;20424;-71
2023/12/11 12:40:44;;;;;;;5.00;2.30;;;;;;;;;;5132554;27;20058;-74
2023/12/11 12:43:11;;;;;;;5.78;2.20;;;;;;;;;;5130762;27;20050;-72
2023/12/11 12:45:38;;;;;;;6.32;2.35;;;;;;;;;;5126037;27;20047;-71
2023/12/11 12:48:06;;;;;;;7.70;2.55;;;;;;;;;;5135712;27;20047;-71
2023/12/11 12:50:33;;;;;;;6.88;2.17;;;;;;;;;;5132405;27;20125;-72
2023/12/11 12:53:06;;;;;;;7.30;2.00;;;;;;;;;;5133400;27;20051;-72
2023/12/11 12:55:33;;;;;;;6.95;2.10;;;;;;;;;;5119918;27;20054;-72
2023/12/11 12:58:01;;;;;;;6.07;2.58;;;;;;;;;;5128993;27;20062;-73
2023/12/11 13:00:28;;;;;;;7.10;2.63;;;;;;;;;;5123855;27;20057;-68
2023/12/11 13:02:55;;;;;;;6.68;2.60;;;;;;;;;;5124875;27;20066;-73
2023/12/11 13:05:23;;;;;;;6.47;2.90;;;;;;;;;;5116141;27;20051;-69
2023/12/11 13:07:57;;;;;;;4.93;2.50;;;;;;;;;;5124291;27;20054;-65
2023/12/11 13:10:24;;;;;;;4.90;2.20;;;;;;;;;;5140526;27;20488;-72
2023/12/11 13:12:51;;;;;;;8.30;2.70;;;;;;;;;;5120378;27;20047;-73
2023/12/11 13:15:19;;;;;;;6.80;3.10;;;;;;;;;;5121994;27;20071;-70
2023/12/11 13:17:51;;;;;;;7.85;2.97;;;;;;;;;;5113962;28;20059;-70
2023/12/11 13:20:19;;;;;;;6.07;2.63;;;;;;;;;;5132330;27;20047;-69
2023/12/11 13:22:46;;;;;;;7.15;2.45;;;;;;;;;;5131337;27;20046;-70
2023/12/11 13:25:13;;;;;;;5.70;2.50;;;;;;;;;;5128464;27;20043;-71
2023/12/11 13:27:40;;;;;;;9.18;2.97;;;;;;;;;;5127109;27;20058;-70
2023/12/11 13:30:08;;;;;;;6.10;2.70;;;;;;;;;;5123806;27;20062;-69
2023/12/11 13:32:36;;;;;;;7.00;3.10;;;;;;;;;;5120309;27;20054;-69
2023/12/11 13:35:03;;;;;;;11.77;3.30;;;;;;;;;;5116754;27;20415;-68
2023/12/11 13:37:30;;;;;;;10.25;3.58;;;;;;;;;;5112697;28;20051;-69
2023/12/11 13:39:57;;;;;;;5.07;3.03;;;;;;;;;;5124778;27;20518;-69
2023/12/11 13:42:23;;;;;;;6.88;3.60;;;;;;;;;;5124475;27;20040;-69
2023/12/11 13:44:56;;;;;;;9.40;4.45;;;;;;;;;;5118899;27;20059;-69
2023/12/11 13:47:23;;;;;;;11.85;5.10;;;;;;;;;;5131324;27;20058;-69
2023/12/11 13:49:52;;;;;;;8.98;4.10;;;;;;;;;;5123585;27;20407;-69
2023/12/11 13:52:18;;;;;;;8.98;4.30;;;;;;;;;;5131506;27;20052;-69
2023/12/11 13:54:45;;;;;;;7.97;3.78;;;;;;;;;;5132930;27;20078;-69
2023/12/11 13:57:12;;;;;;;7.78;3.92;;;;;;;;;;5133371;27;20051;-69
2023/12/11 13:59:40;;;;;;;10.02;4.82;;;;;;;;;;5114153;27;20506;-70
2023/12/11 14:02:07;;;;;;;8.82;4.72;;;;;;;;;;5114355;27;20440;-70
2023/12/11 14:04:34;;;;;;;8.52;4.75;;;;;;;;;;5092728;28;20136;-70
2023/12/11 14:07:02;;;;;;;7.60;4.00;;;;;;;;;;5106650;28;20062;-71
2023/12/11 14:09:30;;;;;;;8.95;3.85;;;;;;;;;;5097662;28;20059;-70
2023/12/11 14:11:57;;;;;;;7.63;3.72;;;;;;;;;;5108902;28;20043;-70
2023/12/11 14:14:24;;;;;;;7.88;3.95;;;;;;;;;;5092364;28;20059;-70
2023/12/11 14:16:51;;;;;;;9.20;4.15;;;;;;;;;;5106894;27;20058;-70
2023/12/11 14:19:17;;;;;;;10.10;4.28;;;;;;;;;;5108201;28;20066;-70
2023/12/11 14:21:44;;;;;;;11.93;4.35;;;;;;;;;;5107817;28;20044;-70
2023/12/11 14:24:13;;;;;;;6.90;3.63;;;;;;;;;;5092091;28;20048;-71
2023/12/11 14:26:39;;;;;;;8.27;4.15;;;;;;;;;;5111663;28;20404;-71
2023/12/11 14:29:06;;;;;;;6.40;4.10;;;;;;;;;;5111713;28;20058;-70
2023/12/11 14:31:33;;;;;;;7.47;4.03;;;;;;;;;;5108683;28;20051;-71
2023/12/11 14:34:00;;;;;;;8.63;4.28;;;;;;;;;;5097493;28;20059;-70
2023/12/11 14:36:27;;;;;;;7.82;4.50;;;;;;;;;;5104923;28;20063;-71